Terminal Aerodrome Forecast
Issued by NWS

Home | Current Version | Previous Version | Text Only | Print | Product List | Glossary On
Versions: 1 2 3 4 5 6 7 8 9 10 11 12 13 14 15 16 17 18 19 20 21 22 23 24 25 26
000
FTUS43 KGRR 012340
TAFAZO
TAF
KAZO 012340Z 0200/0224 20010G16KT P6SM VCSH OVC070
     FM020100 19009G17KT P6SM VCSH BKN050 WS020/22040KT
     FM021000 23011KT P6SM BKN035 WS020/27040KT
     FM021300 25011G22KT P6SM BKN050
     FM022100 26015G24KT P6SM BKN250=

USA.gov is the U.S. government's official web portal to all federal, state and local government web resources and services.